createdAt,value
2023-03-08T00:02:14.806Z,99702.78
2023-03-08T00:07:11.401Z,99696.88
2023-03-08T00:12:08.386Z,99700.59
2023-03-08T00:17:05.104Z,99701.69
2023-03-08T00:22:01.614Z,99699.50
2023-03-08T00:26:58.015Z,99704.06
2023-03-08T00:31:54.403Z,99708.09
2023-03-08T00:36:50.835Z,99709.44
2023-03-08T00:41:47.245Z,99719.88
2023-03-08T00:46:43.739Z,99718.50
2023-03-08T00:51:40.138Z,99715.59
2023-03-08T00:56:36.577Z,99726.81
2023-03-08T01:01:33.485Z,99735.94
2023-03-08T01:06:29.907Z,99740.22
2023-03-08T01:11:27.602Z,99747.97
2023-03-08T01:16:27.890Z,99743.91
2023-03-08T01:21:25.186Z,99736.94
2023-03-08T01:26:24.244Z,99732.91
2023-03-08T01:31:23.468Z,99723.00
2023-03-08T01:36:22.361Z,99721.63
2023-03-08T01:41:25.091Z,99729.91
2023-03-08T01:46:35.020Z,99734.19
2023-03-08T01:51:46.664Z,99721.34
2023-03-08T01:56:44.916Z,99719.72
2023-03-08T02:01:41.541Z,99710.34
2023-03-08T02:06:38.031Z,99707.91
2023-03-08T02:11:36.902Z,99705.47
2023-03-08T02:16:33.306Z,99693.97
2023-03-08T02:21:31.358Z,99707.63
2023-03-08T02:26:27.784Z,99705.22
2023-03-08T02:31:24.210Z,99716.72
2023-03-08T02:36:20.697Z,99710.59
2023-03-08T02:41:17.222Z,99714.47
2023-03-08T02:46:14.528Z,99714.56
2023-03-08T02:51:10.953Z,99717.78
2023-03-08T02:56:07.720Z,99713.47
2023-03-08T03:01:04.226Z,99705.44
2023-03-08T03:06:00.727Z,99718.84
2023-03-08T03:10:57.216Z,99703.81
2023-03-08T03:15:53.677Z,99704.88
2023-03-08T03:20:50.155Z,99708.66
2023-03-08T03:25:46.594Z,99704.91
2023-03-08T03:30:43.319Z,99701.69
2023-03-08T03:35:39.851Z,99715.66
2023-03-08T03:40:36.254Z,99703.03
2023-03-08T03:45:32.635Z,99700.09
2023-03-08T03:50:29.114Z,99715.16
2023-03-08T03:55:25.485Z,99724.53
2023-03-08T04:00:22.146Z,99717.84
2023-03-08T04:05:18.599Z,99724.28
2023-03-08T04:10:15.029Z,99718.38
2023-03-08T04:15:11.746Z,99730.19
2023-03-08T04:20:09.061Z,99725.38
2023-03-08T04:25:05.912Z,99724.28
2023-03-08T04:30:02.714Z,99730.72
2023-03-08T04:34:59.211Z,99727.50
2023-03-08T04:39:55.727Z,99723.19
2023-03-08T04:44:52.130Z,99723.75
2023-03-08T04:49:48.515Z,99726.72
2023-03-08T04:54:44.977Z,99735.03
2023-03-08T04:59:43.842Z,99726.41
2023-03-08T05:04:40.299Z,99720.53
2023-03-08T05:09:36.766Z,99731.25
2023-03-08T05:14:33.153Z,99719.47
2023-03-08T05:19:29.626Z,99716.78
2023-03-08T05:24:27.225Z,99713.53
2023-03-08T05:29:23.598Z,99709.81
2023-03-08T05:34:20.063Z,99710.31
2023-03-08T05:39:16.516Z,99708.72
2023-03-08T05:44:13.007Z,99703.34
2023-03-08T05:49:09.408Z,99711.66
2023-03-08T05:54:06.119Z,99720.53
2023-03-08T05:59:03.010Z,99725.09
2023-03-08T06:03:59.425Z,99727.50
2023-03-08T06:08:56.385Z,99734.47
2023-03-08T06:13:52.954Z,99724.81
2023-03-08T06:18:49.384Z,99727.50
2023-03-08T06:23:46.123Z,99722.94
2023-03-08T06:28:42.781Z,99722.69
2023-03-08T06:33:39.156Z,99715.16
2023-03-08T06:38:38.200Z,99710.88
2023-03-08T06:43:35.666Z,99712.47
2023-03-08T06:48:32.524Z,99719.44
2023-03-08T06:53:29.227Z,99713.56
2023-03-08T06:58:25.678Z,99717.84
2023-03-08T07:03:22.927Z,99718.94
2023-03-08T07:08:19.423Z,99723.22
2023-03-08T07:13:15.849Z,99734.78
2023-03-08T07:18:13.583Z,99727.78
2023-03-08T07:23:11.018Z,99728.03
2023-03-08T07:28:07.505Z,99724.81
2023-03-08T07:33:04.397Z,99719.97
2023-03-08T07:38:00.956Z,99719.69
2023-03-08T07:42:57.527Z,99719.41
2023-03-08T07:47:54.197Z,99713.53
2023-03-08T07:52:50.614Z,99714.00
2023-03-08T07:57:47.044Z,99719.66
2023-03-08T08:02:43.486Z,99716.72
2023-03-08T08:07:39.874Z,99724.22
2023-03-08T08:12:36.242Z,99717.75
2023-03-08T08:17:32.631Z,99700.56
2023-03-08T08:22:29.011Z,99708.03
2023-03-08T08:27:25.452Z,99705.81
2023-03-08T08:32:21.907Z,99692.31
2023-03-08T08:37:18.362Z,99689.63
2023-03-08T08:42:14.804Z,99690.66
2023-03-08T08:47:11.300Z,99689.03
2023-03-08T08:52:07.700Z,99698.16
2023-03-08T08:57:04.144Z,99705.41
2023-03-08T09:02:00.825Z,99712.13
2023-03-08T09:06:57.456Z,99706.72
2023-03-08T09:11:55.716Z,99714.31
2023-03-08T09:16:53.151Z,99711.81
2023-03-08T09:21:49.665Z,99705.72
2023-03-08T09:26:47.142Z,99712.19
2023-03-08T09:31:45.171Z,99703.00
2023-03-08T09:36:42.543Z,99698.19
2023-03-08T09:41:41.498Z,99693.88
2023-03-08T09:46:46.067Z,99702.47
2023-03-08T09:51:47.289Z,99690.66
2023-03-08T09:56:49.721Z,99687.44
2023-03-08T10:02:00.862Z,99687.59
2023-03-08T10:07:21.346Z,99674.50
2023-03-08T10:12:32.039Z,99666.28
2023-03-08T10:17:39.324Z,99665.03
2023-03-08T10:22:42.302Z,99661.50
2023-03-08T10:27:38.732Z,99661.66
2023-03-08T10:32:43.744Z,99657.38
2023-03-08T10:37:40.461Z,99652.00
2023-03-08T10:42:37.241Z,99649.25
2023-03-08T10:47:35.454Z,99636.13
2023-03-08T10:52:31.888Z,99632.25
2023-03-08T10:57:29.260Z,99628.00
2023-03-08T11:02:25.690Z,99625.16
2023-03-08T11:07:25.855Z,99617.66
2023-03-08T11:12:26.461Z,99611.47
2023-03-08T11:17:33.366Z,99607.47
2023-03-08T11:22:54.582Z,99592.16
2023-03-08T11:28:23.889Z,99602.97
2023-03-08T11:33:53.424Z,99588.16
2023-03-08T11:39:15.674Z,99592.47
2023-03-08T11:44:17.955Z,99587.66
2023-03-08T11:49:25.948Z,99582.09
2023-03-08T11:54:42.748Z,99580.06
2023-03-08T11:59:56.874Z,99573.28
2023-03-08T12:05:02.369Z,99570.75
2023-03-08T12:10:03.754Z,99574.22
2023-03-08T12:15:07.798Z,99572.63
2023-03-08T12:20:09.083Z,99554.91
2023-03-08T12:25:31.900Z,99555.16
2023-03-08T12:30:41.535Z,99545.78
2023-03-08T12:35:49.365Z,99542.16
2023-03-08T12:40:51.200Z,99542.09
2023-03-08T12:45:56.684Z,99544.47
2023-03-08T12:51:14.231Z,99526.34
2023-03-08T12:56:10.606Z,99535.66
2023-03-08T13:01:30.312Z,99528.53
2023-03-08T13:06:36.918Z,99540.34
2023-03-08T13:11:44.577Z,99538.16
2023-03-08T13:16:41.053Z,99530.56
2023-03-08T13:21:41.535Z,99540.56
2023-03-08T13:27:05.548Z,99537.56
2023-03-08T13:32:11.771Z,99538.75
2023-03-08T13:37:25.599Z,99545.19
2023-03-08T13:42:26.981Z,99541.19
2023-03-08T13:47:33.783Z,99542.38
2023-03-08T13:52:36.381Z,99544.75
2023-03-08T13:57:35.200Z,99539.53
2023-03-08T14:02:32.371Z,99541.31
2023-03-08T14:07:32.104Z,99539.25
2023-03-08T14:12:31.967Z,99535.91
2023-03-08T14:17:31.615Z,99541.94
2023-03-08T14:22:39.200Z,99532.44
2023-03-08T14:27:41.399Z,99521.13
2023-03-08T14:32:38.525Z,99513.63
2023-03-08T14:37:35.565Z,99523.91
2023-03-08T14:42:46.922Z,99513.69
2023-03-08T14:47:58.780Z,99509.78
2023-03-08T14:52:56.372Z,99500.00
2023-03-08T14:57:59.740Z,99496.22
2023-03-08T15:02:57.819Z,99496.31
2023-03-08T15:07:54.952Z,99486.75
2023-03-08T15:12:51.678Z,99495.44
2023-03-08T15:17:51.844Z,99488.88
2023-03-08T15:22:52.767Z,99497.59
2023-03-08T15:27:49.898Z,99484.38
2023-03-08T15:32:46.693Z,99488.69
2023-03-08T15:37:43.886Z,99489.31
2023-03-08T15:42:40.628Z,99486.13
2023-03-08T15:47:37.352Z,99486.00
2023-03-08T15:52:33.880Z,99473.69
2023-03-08T15:57:30.249Z,99490.91
2023-03-08T16:02:26.955Z,99483.72
2023-03-08T16:07:23.539Z,99487.09
2023-03-08T16:12:20.001Z,99475.00
2023-03-08T16:17:17.674Z,99481.06
2023-03-08T16:22:14.207Z,99473.06
2023-03-08T16:27:10.745Z,99472.88
2023-03-08T16:32:07.395Z,99472.28
2023-03-08T16:37:05.381Z,99469.59
2023-03-08T16:42:01.912Z,99475.34
2023-03-08T16:46:58.316Z,99482.50
2023-03-08T16:51:55.544Z,99478.19
2023-03-08T16:56:51.947Z,99481.63
2023-03-08T17:01:49.841Z,99486.75
2023-03-08T17:06:46.549Z,99488.78
2023-03-08T17:11:43.206Z,99493.59
2023-03-08T17:16:40.081Z,99489.19
2023-03-08T17:21:38.250Z,99502.66
2023-03-08T17:26:40.190Z,99508.28
2023-03-08T17:31:36.760Z,99504.84
2023-03-08T17:36:33.304Z,99501.50
2023-03-08T17:41:29.853Z,99510.13
2023-03-08T17:46:27.458Z,99502.69
2023-03-08T17:51:26.535Z,99528.13
2023-03-08T17:56:29.413Z,99528.13
2023-03-08T18:01:28.245Z,99531.88
2023-03-08T18:06:30.818Z,99522.25
2023-03-08T18:11:27.531Z,99521.81
2023-03-08T18:16:23.995Z,99514.78
2023-03-08T18:21:21.453Z,99522.41
2023-03-08T18:26:18.633Z,99518.00
2023-03-08T18:31:18.067Z,99521.34
2023-03-08T18:36:14.647Z,99505.19
2023-03-08T18:41:25.442Z,99503.56
2023-03-08T18:46:28.468Z,99505.38
2023-03-08T18:51:24.982Z,99510.28
2023-03-08T18:56:22.276Z,99504.44
2023-03-08T19:01:18.795Z,99514.19
2023-03-08T19:06:15.415Z,99499.72
2023-03-08T19:11:13.187Z,99492.19
2023-03-08T19:16:21.576Z,99497.00
2023-03-08T19:21:20.579Z,99499.75
2023-03-08T19:26:38.836Z,99499.75
2023-03-08T19:31:40.247Z,99503.06
2023-03-08T19:36:37.734Z,99495.50
2023-03-08T19:41:34.148Z,99489.66
2023-03-08T19:46:30.801Z,99496.66
2023-03-08T19:51:27.307Z,99494.41
2023-03-08T19:56:24.870Z,99481.84
2023-03-08T20:01:21.826Z,99486.38
2023-03-08T20:06:36.840Z,99489.09
2023-03-08T20:11:33.419Z,99486.13
2023-03-08T20:16:30.368Z,99494.97
2023-03-08T20:21:29.549Z,99503.63
2023-03-08T20:26:29.065Z,99507.38
2023-03-08T20:31:27.436Z,99523.47
2023-03-08T20:36:24.143Z,99515.41
2023-03-08T20:41:22.764Z,99520.88
2023-03-08T20:46:21.129Z,99523.50
2023-03-08T20:51:19.394Z,99525.16
2023-03-08T20:56:17.962Z,99513.38
2023-03-08T21:01:17.297Z,99515.00
2023-03-08T21:06:19.176Z,99521.75
2023-03-08T21:11:16.540Z,99532.72
2023-03-08T21:16:15.560Z,99542.69
2023-03-08T21:21:23.938Z,99552.16
2023-03-08T21:26:21.905Z,99539.28
2023-03-08T21:31:19.874Z,99534.50
2023-03-08T21:36:16.843Z,99527.50
2023-03-08T21:41:24.609Z,99518.91
2023-03-08T21:46:21.380Z,99504.44
2023-03-08T21:51:17.904Z,99484.09
2023-03-08T21:56:16.713Z,99489.97
2023-03-08T22:01:19.189Z,99487.75
2023-03-08T22:06:15.450Z,99493.63
2023-03-08T22:11:12.040Z,99483.97
2023-03-08T22:16:08.938Z,99484.47
2023-03-08T22:21:05.421Z,99480.97
2023-03-08T22:26:01.965Z,99483.91
2023-03-08T22:30:58.353Z,99489.34
2023-03-08T22:35:54.835Z,99490.63
2023-03-08T22:40:51.276Z,99479.56
2023-03-08T22:45:47.722Z,99476.38
2023-03-08T22:50:44.119Z,99477.44
2023-03-08T22:55:47.209Z,99488.81
2023-03-08T23:00:43.631Z,99490.94
2023-03-08T23:05:40.112Z,99483.66
2023-03-08T23:10:37.394Z,99484.53
2023-03-08T23:15:33.809Z,99467.91
2023-03-08T23:20:30.455Z,99480.31
2023-03-08T23:25:26.850Z,99470.38
2023-03-08T23:30:23.273Z,99481.41
2023-03-08T23:35:19.825Z,99465.88
2023-03-08T23:40:16.354Z,99469.13
2023-03-08T23:45:12.776Z,99466.97
2023-03-08T23:50:09.670Z,99465.94
2023-03-08T23:55:06.818Z,99473.44
